logo tempoitalia

Diretta Meteo Valencia, Spagnalunedì 31 agosto ore 07:00

Mappa
Sereno 21 °C Sereno 24 Ore: T.min 19 T.max 31
Ponente Nord-Ovest Km/h 7.4 Punto di rugiada: 16 °C Umidità: 73% Visibilità: 10 Km
Il sole sorge alle: 07:29 Il sole tramonta alle: 20:35
31 Agosto 2026 07:00 tempo osservato: Sereno Sereno 21 73 1016 vento: Nord NO 7.4
31 Agosto 2026 06:30 tempo osservato: Sereno Sereno 21 73 1016 vento: Nord N/NO 11.1
31 Agosto 2026 06:00 tempo osservato: Sereno Sereno 21 77 1016 vento: Nord NO 7.4
31 Agosto 2026 05:30 tempo osservato: Sereno Sereno 21 82 1016 vento: Nord N 3.7
31 Agosto 2026 05:00 tempo osservato: Sereno Sereno 21 88 1016 vento: Nord N 5.5
31 Agosto 2026 04:30 tempo osservato: Sereno Sereno 21 82 1016 vento: Nord O/NO 9.3
31 Agosto 2026 04:00 tempo osservato: Sereno Sereno 22 83 1016 vento: Nord O/NO 9.3
31 Agosto 2026 03:30 tempo osservato: Sereno Sereno 22 83 1016 vento: Nord N/NO 9.3
31 Agosto 2026 03:00 tempo osservato: Sereno Sereno 23 83 1016 vento: Nord NO 9.3
31 Agosto 2026 02:30 tempo osservato: Sereno Sereno 23 83 1016 vento: Nord NO 7.4
31 Agosto 2026 02:00 tempo osservato: Sereno Sereno 23 83 1016 vento: Nord N/NO 7.4
31 Agosto 2026 01:30 tempo osservato: Sereno Sereno 24 78 1016 vento: Nord N/NO 9.3
31 Agosto 2026 01:00 tempo osservato: Sereno Sereno 25 78 1016 vento: Nord NE 11.1
31 Agosto 2026 00:30 tempo osservato: Sereno Sereno 25 78 1016 vento: Nord NE 7.4
31 Agosto 2026 00:00 tempo osservato: Sereno Sereno 25 78 1016 vento: Nord N/NE 11.1
30 Agosto 2026 23:30 tempo osservato: Sereno Sereno 25 78 1016 vento: Nord NE 9.3
30 Agosto 2026 23:00 tempo osservato: Sereno Sereno 26 73 1016 vento: Nord NE 14.8
30 Agosto 2026 22:30 tempo osservato: Sereno Sereno 26 73 1016 vento: Nord NE 16.7
30 Agosto 2026 22:00 tempo osservato: Sereno Sereno 26 78 1015 vento: Nord NE 13
30 Agosto 2026 21:30 tempo osservato: Sereno Sereno 26 73 1015 vento: Nord NE 13
30 Agosto 2026 21:00 tempo osservato: Sereno Sereno 26 73 1015 vento: Nord NE 13
30 Agosto 2026 20:30 tempo osservato: Sereno Sereno 27 69 1014 vento: Nord E/NE 13
30 Agosto 2026 20:00 tempo osservato: Sereno Sereno 28 65 1014 vento: Nord NE 13
30 Agosto 2026 19:30 tempo osservato: Sereno Sereno 28 65 1014 vento: Nord NE 13
30 Agosto 2026 19:00 tempo osservato: Sereno Sereno 29 54 1014 vento: Nord E 9.3
30 Agosto 2026 18:30 tempo osservato: Sereno Sereno 29 58 1014 vento: Nord E 13
30 Agosto 2026 18:00 tempo osservato: Sereno Sereno 29 62 1015 vento: Nord E 14.8
30 Agosto 2026 17:30 tempo osservato: Sereno Sereno 29 58 1015 vento: Nord E 16.7
30 Agosto 2026 17:00 tempo osservato: Sereno Sereno 29 62 1015 vento: Nord N 16.7
30 Agosto 2026 16:30 tempo osservato: Sereno Sereno 29 54 1015 vento: Nord SE 20.3
30 Agosto 2026 16:00 tempo osservato: Sereno Sereno 29 51 1016 vento: Nord E/SE 18.5
30 Agosto 2026 15:30 tempo osservato: Sereno Sereno 30 42 1016 vento: Nord E/SE 20.3
30 Agosto 2026 15:00 tempo osservato: Sereno Sereno 30 40 1016 vento: Nord E/SE 22.2
30 Agosto 2026 14:30 tempo osservato: Sereno Sereno 30 37 1016 vento: Nord SE 18.5
30 Agosto 2026 14:00 tempo osservato: Sereno Sereno 31 33 1017 vento: Nord E 14.8
30 Agosto 2026 13:30 tempo osservato: Sereno Sereno 31 29 1017 vento: Nord E/SE 13
30 Agosto 2026 13:00 tempo osservato: Sereno Sereno 30 30 1017 vento: Nord E/SE 14.8
30 Agosto 2026 12:30 tempo osservato: Sereno Sereno 30 28 1017 vento: Nord E 9.3
30 Agosto 2026 12:00 tempo osservato: Sereno Sereno 29 28 1017 vento: Nord SE 9.3
30 Agosto 2026 11:30 tempo osservato: Sereno Sereno 30 28 1017 vento: Nord N 5.5
30 Agosto 2026 11:00 tempo osservato: Sereno Sereno 28 32 1017 vento: Nord N 5.5
30 Agosto 2026 10:30 tempo osservato: Sereno Sereno 26 36 1017 vento: Nord N 3.7
30 Agosto 2026 10:00 tempo osservato: Sereno Sereno 25 41 1017 vento: Nord N/NO 7.4
30 Agosto 2026 09:30 tempo osservato: Sereno Sereno 23 46 1017 vento: Nord N/NO 11.1
30 Agosto 2026 09:00 tempo osservato: Sereno Sereno 22 49 1017 vento: Nord N 5.5
30 Agosto 2026 08:30 tempo osservato: Sereno Sereno 20 56 1017 vento: Nord N 5.5
30 Agosto 2026 08:00 tempo osservato: Sereno Sereno 19 59 1017 vento: Nord SO 7.4